首页
METAR-TAF:

METAR-TAF

机场 :

水牛城, 紐約州, 美国

纬度: 42-56-27N, 经度: 078-44-09W, 海拔: 220米

当前天气观测

该预报发布于16分钟前的16:54 UTC
风速10节,风向西南
温度 24°C
湿度 69%
气压 1012 hPa
能見度: 16.1公里
少量云层高于2500英尺
散云层高于26000英尺

METAR: KBUF 051654Z 22010KT 10SM FEW025 SCT260 24/18 A2987 RMK AO2 SLP113 TCU DSNT NW-N T02440183 $

时间: 13:10 (17:10 UTC)

预报

该预报发布于1小时和59分钟前的15:11 UTC
预报有效从05日的 15点(UTC)到 06日的 12点(UTC)
风速9节,风向西南
能見度: 10公里
散云层高于25000英尺
从 06日的 0200点(UTC)
风速10节,风向西南,有时为18节阵风
能見度: 10公里
散云层高于20000英尺
从 06日的 0400点(UTC)
风速10节,风向西南,有时为18节阵风
能見度: 10公里
多云层高于12000英尺
从 06日的 0700点(UTC)
风速9节,风向西
能見度: 10公里
多云层高于5000英尺
从 06日的 1000点(UTC)
风速7节,风向西
能見度: 10公里
散云层高于9000英尺

TAF: KBUF 051511Z 0515/0612 23009KT P6SM SCT250 FM060200 22010G18KT P6SM SCT200 FM060400 23010G18KT P6SM BKN120 FM060700 27009KT P6SM BKN050 FM061000 27007KT P6SM SCT090

超过4000个机场的气象观测和天气预报(METAR&TAF报告)。

可查询的气象台以黄色和红色小点在地图上表示。

将鼠标移到小点上方,可查看气象台名称。

然后点击查看天气观测和预报。

如需切换地图:点击带黑十字的绿色按钮放大地图;点击带横线的绿色按钮缩小地图;或者点击绿色箭头查看邻近地区的地图。


METAR-TAF: